Current Conditions

Updated: 17-Oct-2018 1:53 PM  
Summary / Temperature Wind Rain






Feels like: 80°F

1-hour difference
1.2°F 1.2°F warmer than last hour.

24-hour difference
2.2°F2.2°F warmer than yesterday at this time.

  Today Yesterday
High: 81.8°F
1:41 PM
80.4°F
3:37 PM
Low: 46.4°F
5:47 AM
46.6°F
6:14 AM
Calm WNW
0.0
Gust:  0.0 mph
0 Beaufort - Calm

Today: 3.5 - 9:41 AM
Month: 11.0 mph - Oct 10
Rain Today: 0.00 in
Current Rate (/hr): 0.000 in
Max Rate (/hr):
Rain Yesterday: 0.00 in
Storm Rain: 0.00 in
This Month: 0.40 in
Season Total: 0.40 in
Last Rain Event: 12 days ago
Humidity / Barometer Sun / Moon
Humidity: 28 Decreased 1.0% in the last hour.
Dew Point: 44.9°F  
Barometer: 30.028 inHg  
Baro Trend: Falling
Sunrise: 7:05 AM
Sunset: 6:19 PM
Moonrise: 2:51 PM
Moonset: 12:18 AM
Sky Conditions UV Index
Summary: Clear
Visibility: 10 miles
Clouds: None
KVIS - 12:56 PM PDT
Current: 6.0  High 
Wednesday: 4.7  Moderate 
Thursday: 4.7  Moderate 
Air Quality Fire Danger
 Moderate 
Ozone 56 ppb
PM 2.5 15 μg/m3
1:50 PM PDT
Current: 67  Moderate 

Local Alerts Local Forecast
Local NWS Alerts
Today

Sunny

High 83
Tonight

Clear

Low 53
Thu

Sunny

High 83
Thu night

Clear

Low 52
Fri

Sunny

High 84
Fri night

Clear

Low 53
Sat

Sunny

High 86

Local Radar Local Satellite Neighborhood Cam Sky Cam
Local Radar Local Satellite Neighborhood Cam Sky Cam


Nearby Personal Stations

Weather Underground PWS KCAEXETE7     Weather Underground PWS KCAEXETE6     Weather Underground PWS KCAEXETE11

Nearby Airport Stations

KVIS - Visalia, California, USA
Distance from station: W 14mi, 23km
Updated: Wed, 17-Oct-2018 12:56pm PDT
Clear
Clear
 Wind from varies
Wind: varies 3 mph , 6 km/h
Temperature: 79°F , 26°C
Dew Point: 37°F , 3°C
Humidity: 23%
Barometer: 30.08 inHg , 1018.6 hPa
Clouds: Clear
Visibility: 10 miles , 16 km
2018/10/17 19:56 KVIS 171956Z AUTO VRB03KT 10SM CLR 26/03 A3008 RMK AO2 SLP192 T02560033
KPTV - Porterville, California, USA
Distance from station: SSE 19mi, 31km
Updated: Wed, 17-Oct-2018 12:56pm PDT
Clear
Clear
 Wind from varies
Wind: varies 5 mph , 7 km/h
Temperature: 79°F , 26°C
Dew Point: 37°F , 3°C
Humidity: 23%
Barometer: 30.08 inHg , 1018.6 hPa
Clouds: Clear
Visibility: 10 miles , 16 km
2018/10/17 19:56 KPTV 171956Z AUTO VRB04KT 10SM CLR 26/03 A3008 RMK AO2 SLP195 T02610028

Metar display script from Saratoga-Weather.org



Visitor Map